createdAt,value
2018-06-24T00:00:40.955Z,3.57
2018-06-24T00:03:10.573Z,4.13
2018-06-24T00:05:40.780Z,2.90
2018-06-24T00:08:10.432Z,2.13
2018-06-24T00:10:40.621Z,2.63
2018-06-24T00:13:10.318Z,2.20
2018-06-24T00:15:42.033Z,2.50
2018-06-24T00:18:11.629Z,2.27
2018-06-24T00:20:41.783Z,2.93
2018-06-24T00:23:11.395Z,2.07
2018-06-24T00:25:41.781Z,4.37
2018-06-24T00:28:11.438Z,2.50
2018-06-24T00:30:43.657Z,2.53
2018-06-24T00:33:13.306Z,2.17
2018-06-24T00:35:42.897Z,1.80
2018-06-24T00:38:12.508Z,2.77
2018-06-24T00:40:42.505Z,4.20
2018-06-24T00:43:12.107Z,4.47
2018-06-24T00:45:43.544Z,3.40
2018-06-24T00:48:13.149Z,3.00
2018-06-24T00:50:44.050Z,3.47
2018-06-24T00:53:13.771Z,3.10
2018-06-24T00:55:43.455Z,2.63
2018-06-24T00:58:13.073Z,3.30
2018-06-24T01:00:44.245Z,2.47
2018-06-24T01:03:13.981Z,3.37
2018-06-24T01:05:43.738Z,2.37
2018-06-24T01:08:13.320Z,2.13
2018-06-24T01:10:43.277Z,3.27
2018-06-24T01:13:12.915Z,6.27
2018-06-24T01:15:44.105Z,3.83
2018-06-24T01:18:13.692Z,2.37
2018-06-24T01:20:43.913Z,3.43
2018-06-24T01:23:13.509Z,3.20
2018-06-24T01:25:43.495Z,4.43
2018-06-24T01:28:13.096Z,5.23
2018-06-24T01:30:43.769Z,5.87
2018-06-24T01:33:13.417Z,3.40
2018-06-24T01:35:43.803Z,4.37
2018-06-24T01:38:13.725Z,3.60
2018-06-24T01:40:44.152Z,5.77
2018-06-24T01:43:14.492Z,6.47
2018-06-24T01:45:45.539Z,4.37
2018-06-24T01:48:15.168Z,6.73
2018-06-24T01:50:45.670Z,4.47
2018-06-24T01:53:15.219Z,6.20
2018-06-24T01:55:45.697Z,5.07
2018-06-24T01:58:15.303Z,6.07
2018-06-24T02:00:45.882Z,5.80
2018-06-24T02:03:15.529Z,5.10
2018-06-24T02:05:45.170Z,6.87
2018-06-24T02:08:14.800Z,5.67
2018-06-24T02:10:44.815Z,5.53
2018-06-24T02:13:14.428Z,6.17
2018-06-24T02:15:44.843Z,6.27
2018-06-24T02:18:14.428Z,7.03
2018-06-24T02:20:44.022Z,6.63
2018-06-24T02:23:13.613Z,6.83
2018-06-24T02:25:43.208Z,7.47
2018-06-24T02:28:12.915Z,5.60
2018-06-24T02:30:44.368Z,6.87
2018-06-24T02:33:15.326Z,4.27
2018-06-24T02:35:44.994Z,4.97
2018-06-24T02:38:14.635Z,3.83
2018-06-24T02:40:44.217Z,4.17
2018-06-24T02:43:13.788Z,4.07
2018-06-24T02:45:43.633Z,3.43
2018-06-24T02:48:13.244Z,3.83
2018-06-24T02:50:43.636Z,4.83
2018-06-24T02:53:12.892Z,3.63
2018-06-24T02:55:43.450Z,7.73
2018-06-24T02:58:13.088Z,4.70
2018-06-24T03:00:43.498Z,4.03
2018-06-24T03:03:12.771Z,4.77
2018-06-24T03:05:43.087Z,4.20
2018-06-24T03:08:12.683Z,3.60
2018-06-24T03:10:42.773Z,4.53
2018-06-24T03:13:12.428Z,4.20
2018-06-24T03:15:43.821Z,3.43
2018-06-24T03:18:13.560Z,7.57
2018-06-24T03:20:44.160Z,5.50
2018-06-24T03:23:13.852Z,3.63
2018-06-24T03:25:44.028Z,2.87
2018-06-24T03:28:13.631Z,2.63
2018-06-24T03:30:44.183Z,2.60
2018-06-24T03:33:13.768Z,2.37
2018-06-24T03:35:43.889Z,2.80
2018-06-24T03:38:13.522Z,4.70
2018-06-24T03:40:43.608Z,2.20
2018-06-24T03:43:13.180Z,2.17
2018-06-24T03:45:43.726Z,2.40
2018-06-24T03:48:13.324Z,2.33
2018-06-24T03:50:43.504Z,2.10
2018-06-24T03:53:12.769Z,2.50
2018-06-24T03:55:42.530Z,4.00
2018-06-24T03:58:12.141Z,2.17
2018-06-24T04:00:43.177Z,2.13
2018-06-24T04:03:12.767Z,1.80
2018-06-24T04:05:42.009Z,2.07
2018-06-24T04:08:11.581Z,1.70
2018-06-24T04:10:41.279Z,3.00
2018-06-24T04:13:10.865Z,2.27
2018-06-24T04:15:42.098Z,2.90
2018-06-24T04:18:11.707Z,2.40
2018-06-24T04:20:41.307Z,3.47
2018-06-24T04:23:10.906Z,2.73
2018-06-24T04:25:40.537Z,4.13
2018-06-24T04:28:10.158Z,3.10
2018-06-24T04:30:40.431Z,2.80
2018-06-24T04:33:10.039Z,3.10
2018-06-24T04:35:39.719Z,3.07
2018-06-24T04:38:09.306Z,2.60
2018-06-24T04:40:38.902Z,2.97
2018-06-24T04:43:08.455Z,2.60
2018-06-24T04:45:38.705Z,5.30
2018-06-24T04:48:08.318Z,2.67
2018-06-24T04:50:37.930Z,3.83
2018-06-24T04:53:07.544Z,2.60
2018-06-24T04:55:37.160Z,3.07
2018-06-24T04:58:07.939Z,2.87
2018-06-24T05:00:38.018Z,3.10
2018-06-24T05:03:07.821Z,4.10
2018-06-24T05:05:37.475Z,2.73
2018-06-24T05:08:07.295Z,3.87
2018-06-24T05:10:36.881Z,4.30
2018-06-24T05:13:06.701Z,3.40
2018-06-24T05:15:36.293Z,3.40
2018-06-24T05:18:06.769Z,3.40
2018-06-24T05:20:36.753Z,3.40
2018-06-24T05:23:06.409Z,4.13
2018-06-24T05:25:36.125Z,2.60
2018-06-24T05:28:05.779Z,4.07
2018-06-24T05:30:35.492Z,6.10
2018-06-24T05:33:05.145Z,3.00
2018-06-24T05:35:34.910Z,3.80
2018-06-24T05:38:04.517Z,2.73
2018-06-24T05:40:34.145Z,3.93
2018-06-24T05:43:03.750Z,4.27
2018-06-24T05:45:33.340Z,2.57
2018-06-24T05:48:03.411Z,2.70
2018-06-24T05:50:33.061Z,3.20
2018-06-24T05:53:02.701Z,3.17
2018-06-24T05:55:32.649Z,3.77
2018-06-24T05:58:11.743Z,2.93
2018-06-24T06:00:42.280Z,4.40
2018-06-24T06:03:11.898Z,2.60
2018-06-24T06:05:41.564Z,2.60
2018-06-24T06:08:11.217Z,2.63
2018-06-24T06:10:40.808Z,3.73
2018-06-24T06:13:10.437Z,2.40
2018-06-24T06:15:41.620Z,2.10
2018-06-24T06:18:12.055Z,2.50
2018-06-24T06:20:43.268Z,2.00
2018-06-24T06:23:12.804Z,2.63
2018-06-24T06:25:43.007Z,2.70
2018-06-24T06:28:13.027Z,3.10
2018-06-24T06:30:43.976Z,2.80
2018-06-24T06:33:13.538Z,1.77
2018-06-24T06:35:43.161Z,3.33
2018-06-24T06:38:12.774Z,3.43
2018-06-24T06:40:42.349Z,2.70
2018-06-24T06:43:12.001Z,2.70
2018-06-24T06:45:42.757Z,2.23
2018-06-24T06:48:12.325Z,3.00
2018-06-24T06:50:47.512Z,5.27
2018-06-24T06:53:17.195Z,2.87
2018-06-24T06:55:46.855Z,2.90
2018-06-24T06:58:18.758Z,2.13
2018-06-24T07:00:48.389Z,3.50
2018-06-24T07:03:18.064Z,2.93
2018-06-24T07:05:47.722Z,1.90
2018-06-24T07:08:17.294Z,3.00
2018-06-24T07:10:46.989Z,1.83
2018-06-24T07:13:16.648Z,3.03
2018-06-24T07:15:46.299Z,1.80
2018-06-24T07:18:15.956Z,2.90
2018-06-24T07:20:45.563Z,2.40
2018-06-24T07:23:15.141Z,2.33
2018-06-24T07:25:44.751Z,4.23
2018-06-24T07:28:14.325Z,2.17
2018-06-24T07:30:45.312Z,2.13
2018-06-24T07:33:15.111Z,2.43
2018-06-24T07:35:44.779Z,3.33
2018-06-24T07:38:14.457Z,3.33
2018-06-24T07:40:44.042Z,4.87
2018-06-24T07:43:13.595Z,3.67
2018-06-24T07:45:43.871Z,4.80
2018-06-24T07:48:13.424Z,1.77
2018-06-24T07:50:43.024Z,6.23
2018-06-24T07:53:12.616Z,3.67
2018-06-24T07:55:42.238Z,2.20
2018-06-24T07:58:11.858Z,7.80
2018-06-24T08:00:42.450Z,6.07
2018-06-24T08:03:12.019Z,4.30
2018-06-24T08:05:41.663Z,13.60
2018-06-24T08:08:11.270Z,8.13
2018-06-24T08:10:40.849Z,5.17
2018-06-24T08:13:10.457Z,4.57
2018-06-24T08:15:42.422Z,4.43
2018-06-24T08:18:12.132Z,5.83
2018-06-24T08:20:41.809Z,5.07
2018-06-24T08:23:11.364Z,6.00
2018-06-24T08:25:40.996Z,4.07
2018-06-24T08:28:10.646Z,4.30
2018-06-24T08:30:42.329Z,3.97
2018-06-24T08:33:11.957Z,3.90
2018-06-24T08:35:41.553Z,6.97
2018-06-24T08:38:11.149Z,3.43
2018-06-24T08:40:41.199Z,6.37
2018-06-24T08:43:10.892Z,4.53
2018-06-24T08:45:41.509Z,6.17
2018-06-24T08:48:11.085Z,6.53
2018-06-24T08:50:40.754Z,4.53
2018-06-24T08:53:10.370Z,5.23
2018-06-24T08:55:40.029Z,5.40
2018-06-24T08:58:09.715Z,4.43
2018-06-24T09:00:40.692Z,4.60
2018-06-24T09:03:10.352Z,5.07
2018-06-24T09:05:39.967Z,4.77
2018-06-24T09:08:09.580Z,3.23
2018-06-24T09:10:39.164Z,6.13
2018-06-24T09:13:08.742Z,3.47
2018-06-24T09:15:38.854Z,2.77
2018-06-24T09:18:08.570Z,3.43
2018-06-24T09:20:38.297Z,2.90
2018-06-24T09:23:07.977Z,2.97
2018-06-24T09:25:37.605Z,3.20
2018-06-24T09:28:07.423Z,3.93
2018-06-24T09:30:37.117Z,5.67
2018-06-24T09:33:06.894Z,4.20
2018-06-24T09:35:36.495Z,5.10
2018-06-24T09:38:06.233Z,4.30
2018-06-24T09:40:35.854Z,6.33
2018-06-24T09:43:05.718Z,3.40
2018-06-24T09:45:35.329Z,3.63
2018-06-24T09:48:05.990Z,3.00
2018-06-24T09:50:35.296Z,4.10
2018-06-24T09:53:05.535Z,3.00
2018-06-24T09:55:35.244Z,3.20
2018-06-24T09:58:06.140Z,4.47
2018-06-24T10:00:37.182Z,3.23
2018-06-24T10:03:06.949Z,4.93
2018-06-24T10:05:36.694Z,2.93
2018-06-24T10:08:06.640Z,3.67
2018-06-24T10:10:36.439Z,3.27
2018-06-24T10:13:06.318Z,3.77
2018-06-24T10:15:35.948Z,4.00
2018-06-24T10:18:06.388Z,2.60
2018-06-24T10:20:36.035Z,2.70
2018-06-24T10:23:06.199Z,3.23
2018-06-24T10:25:35.878Z,3.33
2018-06-24T10:28:06.220Z,4.33
2018-06-24T10:30:35.875Z,4.27
2018-06-24T10:33:06.152Z,4.70
2018-06-24T10:35:35.853Z,4.63
2018-06-24T10:38:06.203Z,5.10
2018-06-24T10:40:35.792Z,5.40
2018-06-24T10:43:05.825Z,3.63
2018-06-24T10:45:35.527Z,5.00
2018-06-24T10:48:06.955Z,4.17
2018-06-24T10:50:36.759Z,3.40
2018-06-24T10:53:07.610Z,3.40
2018-06-24T10:55:37.402Z,3.30
2018-06-24T10:58:07.875Z,3.30
2018-06-24T11:00:37.618Z,3.40
2018-06-24T11:03:08.341Z,3.73
2018-06-24T11:05:38.099Z,3.77
2018-06-24T11:08:08.147Z,3.83
2018-06-24T11:10:37.547Z,3.13
2018-06-24T11:13:07.898Z,2.77
2018-06-24T11:15:37.861Z,2.83
2018-06-24T11:18:08.020Z,2.43
2018-06-24T11:20:37.326Z,2.37
2018-06-24T11:23:07.493Z,3.03
2018-06-24T11:25:37.181Z,2.03
2018-06-24T11:28:08.259Z,2.10
2018-06-24T11:30:38.181Z,2.47
2018-06-24T11:33:08.224Z,1.70
2018-06-24T11:35:37.864Z,2.70
2018-06-24T11:38:08.309Z,1.53
2018-06-24T11:40:38.032Z,2.10
2018-06-24T11:43:09.190Z,3.33
2018-06-24T11:45:39.255Z,1.47
2018-06-24T11:48:09.818Z,2.33
2018-06-24T11:50:39.537Z,2.23
2018-06-24T11:53:10.021Z,2.40
2018-06-24T11:55:39.629Z,1.80
2018-06-24T11:58:09.581Z,1.40
2018-06-24T12:00:39.781Z,2.13
2018-06-24T12:03:09.859Z,1.50
2018-06-24T12:05:39.570Z,3.43
2018-06-24T12:08:09.872Z,2.13
2018-06-24T12:10:39.487Z,2.30
2018-06-24T12:13:09.507Z,1.53
2018-06-24T12:15:40.557Z,1.73
2018-06-24T12:18:10.673Z,2.97
2018-06-24T12:20:40.330Z,1.93
2018-06-24T12:23:10.299Z,1.67
2018-06-24T12:25:39.923Z,1.67
2018-06-24T12:28:09.951Z,2.17
2018-06-24T12:30:40.728Z,2.47
2018-06-24T12:33:11.174Z,1.93
2018-06-24T12:35:40.820Z,2.43
2018-06-24T12:38:11.030Z,1.90
2018-06-24T12:40:40.760Z,1.50
2018-06-24T12:43:10.767Z,2.20
2018-06-24T12:45:41.947Z,1.90
2018-06-24T12:48:12.116Z,2.57
2018-06-24T12:50:41.705Z,1.40
2018-06-24T12:53:11.581Z,2.63
2018-06-24T12:55:41.192Z,1.50
2018-06-24T12:58:11.525Z,1.30
2018-06-24T13:00:43.117Z,2.50
2018-06-24T13:03:12.898Z,2.83
2018-06-24T13:05:42.476Z,1.73
2018-06-24T13:08:12.457Z,1.50
2018-06-24T13:10:42.158Z,2.03
2018-06-24T13:13:12.379Z,1.77
2018-06-24T13:15:42.700Z,3.00
2018-06-24T13:18:12.619Z,2.10
2018-06-24T13:20:42.165Z,3.20
2018-06-24T13:23:12.073Z,2.43
2018-06-24T13:25:41.676Z,2.17
2018-06-24T13:28:11.419Z,3.97
2018-06-24T13:30:42.221Z,2.60
2018-06-24T13:33:12.035Z,2.27
2018-06-24T13:35:41.633Z,2.47
2018-06-24T13:38:11.258Z,2.13
2018-06-24T13:40:40.917Z,2.30
2018-06-24T13:43:10.527Z,2.00
2018-06-24T13:45:41.037Z,1.97
2018-06-24T13:48:10.659Z,2.40
2018-06-24T13:50:40.396Z,3.00
2018-06-24T13:53:09.988Z,5.37
2018-06-24T13:55:39.624Z,2.50
2018-06-24T13:58:09.277Z,4.90
2018-06-24T14:00:39.352Z,2.87
2018-06-24T14:03:08.977Z,3.03
2018-06-24T14:05:38.593Z,2.80
2018-06-24T14:08:08.245Z,2.67
2018-06-24T14:10:38.031Z,3.13
2018-06-24T14:13:07.744Z,3.13
2018-06-24T14:15:37.758Z,2.53
2018-06-24T14:18:07.353Z,2.97
2018-06-24T14:20:37.076Z,2.40
2018-06-24T14:23:07.221Z,2.80
2018-06-24T14:25:37.297Z,2.27
2018-06-24T14:28:06.858Z,3.23
2018-06-24T14:30:36.445Z,4.53
2018-06-24T14:33:06.082Z,5.00
2018-06-24T14:35:35.711Z,4.20
2018-06-24T14:38:05.269Z,6.03
2018-06-24T14:40:35.041Z,3.47
2018-06-24T14:43:04.792Z,5.70
2018-06-24T14:45:34.397Z,4.87
2018-06-24T14:48:05.039Z,7.37
2018-06-24T14:50:34.676Z,5.03
2018-06-24T14:53:04.312Z,3.93
2018-06-24T14:55:34.063Z,3.30
2018-06-24T14:58:03.641Z,3.40
2018-06-24T15:00:33.269Z,2.30
2018-06-24T15:03:02.963Z,3.50
2018-06-24T15:05:32.576Z,2.40
2018-06-24T15:08:02.246Z,2.77
2018-06-24T15:10:32.230Z,5.87
2018-06-24T15:13:01.816Z,3.60
2018-06-24T15:15:31.473Z,4.13
2018-06-24T15:18:01.026Z,3.27
2018-06-24T15:20:30.617Z,3.50
2018-06-24T15:23:00.246Z,6.07
2018-06-24T15:25:30.862Z,4.53
2018-06-24T15:28:00.448Z,3.60
2018-06-24T15:30:30.081Z,4.93
2018-06-24T15:32:59.687Z,4.10
2018-06-24T15:35:29.295Z,4.10
2018-06-24T15:37:59.165Z,3.67
2018-06-24T15:40:29.857Z,5.10
2018-06-24T15:42:59.505Z,5.70
2018-06-24T15:45:29.119Z,6.27
2018-06-24T15:47:58.747Z,3.80
2018-06-24T15:50:28.380Z,4.50
2018-06-24T15:52:58.008Z,4.00
2018-06-24T15:55:28.302Z,4.87
2018-06-24T15:57:58.017Z,4.40
2018-06-24T16:00:27.638Z,5.47
2018-06-24T16:02:57.270Z,4.67
2018-06-24T16:05:26.862Z,6.77
2018-06-24T16:07:56.130Z,6.43
2018-06-24T16:10:26.011Z,7.43
2018-06-24T16:12:55.645Z,6.50
2018-06-24T16:15:25.349Z,5.87
2018-06-24T16:17:54.953Z,3.97
2018-06-24T16:20:24.977Z,3.97
2018-06-24T16:22:54.624Z,4.47
2018-06-24T16:25:25.016Z,5.60
2018-06-24T16:27:54.655Z,6.07
2018-06-24T16:30:25.041Z,5.40
2018-06-24T16:32:54.702Z,6.20
2018-06-24T16:35:25.081Z,5.03
2018-06-24T16:37:54.783Z,4.90
2018-06-24T16:40:25.048Z,4.30
2018-06-24T16:42:54.654Z,6.13
2018-06-24T16:45:24.988Z,4.60
2018-06-24T16:47:54.620Z,5.20
2018-06-24T16:50:24.851Z,5.37
2018-06-24T16:52:54.478Z,4.53
2018-06-24T16:55:24.727Z,6.50
2018-06-24T16:57:54.347Z,4.50
2018-06-24T17:00:24.604Z,4.77
2018-06-24T17:02:54.230Z,7.50
2018-06-24T17:05:24.236Z,6.20
2018-06-24T17:07:53.923Z,5.00
2018-06-24T17:10:24.031Z,6.53
2018-06-24T17:12:53.659Z,6.40
2018-06-24T17:15:23.489Z,5.53
2018-06-24T17:17:53.141Z,6.57
2018-06-24T17:20:22.787Z,6.20
2018-06-24T17:22:52.583Z,8.70
2018-06-24T17:25:22.198Z,5.53
2018-06-24T17:27:51.908Z,7.47
2018-06-24T17:30:21.570Z,6.53
2018-06-24T17:32:51.205Z,8.43
2018-06-24T17:35:20.949Z,6.43
2018-06-24T17:37:50.770Z,7.27
2018-06-24T17:40:20.437Z,5.83
2018-06-24T17:42:50.081Z,5.27
2018-06-24T17:45:19.792Z,5.63
2018-06-24T17:47:49.479Z,7.90
2018-06-24T17:50:19.195Z,4.60
2018-06-24T17:52:48.918Z,4.13
2018-06-24T17:55:18.492Z,4.43
2018-06-24T17:57:48.122Z,4.87
2018-06-24T18:00:17.812Z,4.90
2018-06-24T18:02:47.476Z,11.07
2018-06-24T18:05:17.120Z,6.87
2018-06-24T18:10:25.330Z,7.40
2018-06-24T18:12:54.926Z,5.63
2018-06-24T18:15:24.616Z,8.17
2018-06-24T18:17:54.210Z,5.33
2018-06-24T18:20:23.948Z,7.80
2018-06-24T18:22:53.601Z,6.00
2018-06-24T18:25:23.319Z,8.13
2018-06-24T18:27:52.995Z,6.07
2018-06-24T18:30:22.803Z,4.93
2018-06-24T18:32:52.479Z,4.83
2018-06-24T18:35:22.995Z,4.43
2018-06-24T18:37:52.600Z,7.87
2018-06-24T18:40:22.699Z,7.70
2018-06-24T18:42:52.363Z,6.40
2018-06-24T18:45:22.140Z,7.90
2018-06-24T18:47:51.727Z,5.80
2018-06-24T18:50:21.353Z,6.50
2018-06-24T18:52:51.018Z,8.90
2018-06-24T18:55:20.731Z,6.20
2018-06-24T18:57:50.459Z,6.03
2018-06-24T19:00:20.907Z,7.07
2018-06-24T19:02:50.686Z,10.63
2018-06-24T19:05:20.502Z,10.80
2018-06-24T19:07:50.203Z,7.17
2018-06-24T19:10:22.449Z,8.43
2018-06-24T19:12:52.114Z,8.17
2018-06-24T19:15:21.789Z,7.67
2018-06-24T19:17:51.400Z,7.53
2018-06-24T19:20:21.127Z,6.60
2018-06-24T19:22:50.691Z,7.20
2018-06-24T19:25:20.387Z,6.00
2018-06-24T19:27:49.947Z,6.40
2018-06-24T19:30:19.602Z,8.33
2018-06-24T19:32:49.261Z,6.03
2018-06-24T19:35:19.263Z,6.70
2018-06-24T19:37:48.896Z,6.27
2018-06-24T19:40:18.505Z,6.03
2018-06-24T19:42:48.167Z,7.00
2018-06-24T19:45:17.846Z,6.77
2018-06-24T19:47:47.492Z,8.07
2018-06-24T19:50:17.104Z,6.37
2018-06-24T19:52:46.725Z,7.20
2018-06-24T19:55:16.413Z,5.90
2018-06-24T19:57:46.096Z,7.00
2018-06-24T20:00:16.127Z,7.13
2018-06-24T20:02:45.733Z,5.87
2018-06-24T20:05:15.380Z,8.67
2018-06-24T20:07:44.988Z,10.03
2018-06-24T20:10:14.569Z,7.47
2018-06-24T20:12:44.913Z,7.73
2018-06-24T20:15:14.469Z,6.40
2018-06-24T20:17:44.256Z,6.30
2018-06-24T20:20:14.116Z,7.23
2018-06-24T20:22:44.356Z,7.57
2018-06-24T20:25:13.981Z,10.03
2018-06-24T20:27:45.181Z,7.97
2018-06-24T20:30:14.779Z,8.17
2018-06-24T20:32:44.554Z,7.27
2018-06-24T20:35:14.188Z,7.10
2018-06-24T20:37:44.519Z,8.40
2018-06-24T20:40:14.251Z,10.50
2018-06-24T20:42:45.487Z,7.50
2018-06-24T20:45:15.408Z,7.20
2018-06-24T20:47:45.541Z,10.50
2018-06-24T20:50:15.396Z,11.53
2018-06-24T20:52:45.433Z,9.30
2018-06-24T20:55:15.465Z,8.57
2018-06-24T20:57:46.228Z,7.67
2018-06-24T21:00:15.903Z,7.50
2018-06-24T21:02:45.674Z,9.83
2018-06-24T21:05:15.286Z,10.13
2018-06-24T21:07:45.749Z,10.17
2018-06-24T21:10:15.322Z,10.00
2018-06-24T21:12:45.926Z,8.77
2018-06-24T21:15:15.526Z,9.23
2018-06-24T21:17:45.690Z,9.90
2018-06-24T21:20:15.266Z,9.93
2018-06-24T21:22:45.227Z,13.67
2018-06-24T21:25:14.800Z,8.43
2018-06-24T21:27:45.448Z,9.03
2018-06-24T21:30:15.080Z,8.87
2018-06-24T21:32:45.115Z,9.50
2018-06-24T21:35:14.739Z,9.83
2018-06-24T21:37:45.166Z,9.87
2018-06-24T21:40:14.714Z,12.80
2018-06-24T21:42:44.653Z,11.97
2018-06-24T21:45:14.281Z,8.97
2018-06-24T21:47:44.465Z,10.33
2018-06-24T21:50:14.065Z,11.97
2018-06-24T21:52:44.025Z,9.17
2018-06-24T21:55:13.601Z,8.67
2018-06-24T21:57:44.940Z,9.57
2018-06-24T22:00:14.569Z,10.13
2018-06-24T22:02:44.625Z,9.67
2018-06-24T22:05:14.269Z,12.67
2018-06-24T22:07:43.992Z,11.47
2018-06-24T22:10:13.650Z,10.50
2018-06-24T22:12:44.039Z,9.63
2018-06-24T22:15:13.685Z,10.93
2018-06-24T22:17:43.266Z,16.70
2018-06-24T22:20:12.800Z,11.13
2018-06-24T22:22:42.465Z,10.93
2018-06-24T22:25:12.134Z,12.47
2018-06-24T22:27:42.659Z,13.90
2018-06-24T22:30:12.289Z,11.53
2018-06-24T22:32:41.901Z,10.73
2018-06-24T22:35:11.585Z,13.00
2018-06-24T22:37:41.278Z,12.70
2018-06-24T22:40:10.936Z,13.27
2018-06-24T22:42:42.101Z,13.70
2018-06-24T22:45:11.707Z,13.30
2018-06-24T22:47:41.325Z,13.13
2018-06-24T22:50:10.924Z,13.90
2018-06-24T22:52:40.572Z,15.53
2018-06-24T22:55:10.196Z,15.93
2018-06-24T22:57:40.808Z,16.20
2018-06-24T23:00:17.261Z,15.20
2018-06-24T23:02:47.613Z,16.33
2018-06-24T23:05:17.224Z,13.70
2018-06-24T23:07:46.982Z,16.67
2018-06-24T23:10:16.640Z,14.07
2018-06-24T23:12:46.371Z,15.27
2018-06-24T23:15:15.920Z,16.57
2018-06-24T23:17:45.534Z,13.83
2018-06-24T23:20:15.119Z,16.90
2018-06-24T23:22:44.744Z,15.83
2018-06-24T23:25:14.339Z,16.97
2018-06-24T23:27:44.562Z,16.40
2018-06-24T23:30:14.140Z,15.73
2018-06-24T23:32:43.765Z,15.03
2018-06-24T23:35:13.392Z,13.60
2018-06-24T23:37:42.976Z,15.80
2018-06-24T23:40:12.603Z,13.53
2018-06-24T23:42:43.334Z,15.50
2018-06-24T23:45:12.931Z,14.87
2018-06-24T23:47:42.537Z,14.13
2018-06-24T23:50:12.096Z,12.47
2018-06-24T23:52:41.702Z,14.97
2018-06-24T23:55:11.267Z,14.20
2018-06-24T23:57:42.293Z,16.73
